sensor_id;sensor_type;location;lat;lon;timestamp;P1;durP1;ratioP1;P2;durP2;ratioP2
40046;SDS011;31510;48.122;11.576;2022-12-08T00:01:30;17.30;;;11.68;;
40046;SDS011;31510;48.122;11.576;2022-12-08T00:03:57;19.80;;;10.77;;
40046;SDS011;31510;48.122;11.576;2022-12-08T00:06:24;17.90;;;9.82;;
40046;SDS011;31510;48.122;11.576;2022-12-08T00:11:52;17.20;;;9.00;;
40046;SDS011;31510;48.122;11.576;2022-12-08T00:14:21;15.85;;;8.63;;
40046;SDS011;31510;48.122;11.576;2022-12-08T00:16:55;17.27;;;8.80;;
40046;SDS011;31510;48.122;11.576;2022-12-08T00:19:21;14.90;;;8.52;;
40046;SDS011;31510;48.122;11.576;2022-12-08T00:21:46;14.15;;;8.48;;
40046;SDS011;31510;48.122;11.576;2022-12-08T00:24:12;17.67;;;8.05;;
40046;SDS011;31510;48.122;11.576;2022-12-08T00:26:38;16.50;;;8.27;;
40046;SDS011;31510;48.122;11.576;2022-12-08T00:29:03;17.60;;;8.50;;
40046;SDS011;31510;48.122;11.576;2022-12-08T00:31:29;13.75;;;7.82;;
40046;SDS011;31510;48.122;11.576;2022-12-08T00:33:54;18.05;;;8.70;;
40046;SDS011;31510;48.122;11.576;2022-12-08T00:36:20;19.17;;;8.25;;
40046;SDS011;31510;48.122;11.576;2022-12-08T00:38:45;14.57;;;8.45;;
40046;SDS011;31510;48.122;11.576;2022-12-08T00:41:13;15.32;;;8.40;;
40046;SDS011;31510;48.122;11.576;2022-12-08T00:43:40;16.27;;;8.77;;
40046;SDS011;31510;48.122;11.576;2022-12-08T00:46:05;16.92;;;8.50;;
40046;SDS011;31510;48.122;11.576;2022-12-08T00:48:31;16.90;;;8.68;;
40046;SDS011;31510;48.122;11.576;2022-12-08T00:50:56;16.20;;;8.93;;
40046;SDS011;31510;48.122;11.576;2022-12-08T00:53:21;17.70;;;8.85;;
40046;SDS011;31510;48.122;11.576;2022-12-08T00:55:46;15.43;;;8.70;;
40046;SDS011;31510;48.122;11.576;2022-12-08T00:58:12;16.63;;;8.98;;
40046;SDS011;31510;48.122;11.576;2022-12-08T01:00:39;17.73;;;8.77;;
40046;SDS011;31510;48.122;11.576;2022-12-08T01:03:05;16.60;;;8.20;;
40046;SDS011;31510;48.122;11.576;2022-12-08T01:05:30;15.32;;;9.10;;
40046;SDS011;31510;48.122;11.576;2022-12-08T01:07:55;16.52;;;9.32;;
40046;SDS011;31510;48.122;11.576;2022-12-08T01:10:21;14.73;;;8.55;;
40046;SDS011;31510;48.122;11.576;2022-12-08T01:12:46;14.25;;;7.95;;
40046;SDS011;31510;48.122;11.576;2022-12-08T01:15:12;15.38;;;8.07;;
40046;SDS011;31510;48.122;11.576;2022-12-08T01:17:37;19.10;;;9.18;;
40046;SDS011;31510;48.122;11.576;2022-12-08T01:20:03;14.25;;;8.05;;
40046;SDS011;31510;48.122;11.576;2022-12-08T01:22:29;17.17;;;8.63;;
40046;SDS011;31510;48.122;11.576;2022-12-08T01:24:55;16.85;;;8.32;;
40046;SDS011;31510;48.122;11.576;2022-12-08T01:27:20;16.77;;;9.05;;
40046;SDS011;31510;48.122;11.576;2022-12-08T01:29:45;13.98;;;8.23;;
40046;SDS011;31510;48.122;11.576;2022-12-08T01:32:10;18.50;;;8.27;;
40046;SDS011;31510;48.122;11.576;2022-12-08T01:34:36;19.40;;;9.88;;
40046;SDS011;31510;48.122;11.576;2022-12-08T01:37:01;14.52;;;8.32;;
40046;SDS011;31510;48.122;11.576;2022-12-08T01:39:26;15.55;;;8.32;;
40046;SDS011;31510;48.122;11.576;2022-12-08T01:41:52;15.65;;;8.32;;
40046;SDS011;31510;48.122;11.576;2022-12-08T01:46:43;19.13;;;10.30;;
40046;SDS011;31510;48.122;11.576;2022-12-08T01:49:23;15.68;;;8.55;;
40046;SDS011;31510;48.122;11.576;2022-12-08T01:51:58;15.40;;;8.13;;
40046;SDS011;31510;48.122;11.576;2022-12-08T01:54:31;17.85;;;8.75;;
40046;SDS011;31510;48.122;11.576;2022-12-08T01:57:44;22.15;;;9.70;;
40046;SDS011;31510;48.122;11.576;2022-12-08T02:00:07;15.52;;;7.93;;
40046;SDS011;31510;48.122;11.576;2022-12-08T02:02:37;19.15;;;9.75;;
40046;SDS011;31510;48.122;11.576;2022-12-08T02:05:10;16.65;;;8.73;;
40046;SDS011;31510;48.122;11.576;2022-12-08T02:07:36;16.27;;;9.25;;
40046;SDS011;31510;48.122;11.576;2022-12-08T02:10:02;16.30;;;8.63;;
40046;SDS011;31510;48.122;11.576;2022-12-08T02:12:28;15.85;;;8.57;;
40046;SDS011;31510;48.122;11.576;2022-12-08T02:14:54;17.55;;;9.45;;
40046;SDS011;31510;48.122;11.576;2022-12-08T02:27:54;15.27;;;8.02;;
40046;SDS011;31510;48.122;11.576;2022-12-08T02:36:22;16.00;;;8.52;;
40046;SDS011;31510;48.122;11.576;2022-12-08T02:39:08;16.40;;;9.27;;
40046;SDS011;31510;48.122;11.576;2022-12-08T02:41:52;18.50;;;9.75;;
40046;SDS011;31510;48.122;11.576;2022-12-08T02:44:57;16.48;;;9.02;;
40046;SDS011;31510;48.122;11.576;2022-12-08T02:47:27;22.77;;;10.23;;
40046;SDS011;31510;48.122;11.576;2022-12-08T02:49:56;17.58;;;9.13;;
40046;SDS011;31510;48.122;11.576;2022-12-08T02:54:48;18.13;;;9.33;;
40046;SDS011;31510;48.122;11.576;2022-12-08T02:57:28;20.83;;;9.95;;
40046;SDS011;31510;48.122;11.576;2022-12-08T03:10:50;18.02;;;9.45;;
40046;SDS011;31510;48.122;11.576;2022-12-08T03:13:28;18.27;;;9.13;;
40046;SDS011;31510;48.122;11.576;2022-12-08T03:15:58;20.50;;;9.70;;
40046;SDS011;31510;48.122;11.576;2022-12-08T03:18:26;18.48;;;9.40;;
40046;SDS011;31510;48.122;11.576;2022-12-08T03:20:55;17.38;;;9.40;;
40046;SDS011;31510;48.122;11.576;2022-12-08T03:23:21;17.90;;;9.02;;
40046;SDS011;31510;48.122;11.576;2022-12-08T03:25:55;17.83;;;10.48;;
40046;SDS011;31510;48.122;11.576;2022-12-08T03:28:25;20.42;;;10.38;;
40046;SDS011;31510;48.122;11.576;2022-12-08T03:30:52;17.73;;;9.48;;
40046;SDS011;31510;48.122;11.576;2022-12-08T03:33:23;15.07;;;8.45;;
40046;SDS011;31510;48.122;11.576;2022-12-08T03:35:52;19.70;;;9.18;;
40046;SDS011;31510;48.122;11.576;2022-12-08T03:38:18;19.20;;;9.40;;
40046;SDS011;31510;48.122;11.576;2022-12-08T03:40:44;16.42;;;8.35;;
40046;SDS011;31510;48.122;11.576;2022-12-08T03:43:29;16.33;;;8.50;;
40046;SDS011;31510;48.122;11.576;2022-12-08T03:45:55;16.52;;;8.40;;
40046;SDS011;31510;48.122;11.576;2022-12-08T03:48:20;18.45;;;9.50;;
40046;SDS011;31510;48.122;11.576;2022-12-08T03:50:45;15.35;;;8.70;;
40046;SDS011;31510;48.122;11.576;2022-12-08T03:53:11;18.10;;;9.88;;
40046;SDS011;31510;48.122;11.576;2022-12-08T03:55:36;17.25;;;9.40;;
40046;SDS011;31510;48.122;11.576;2022-12-08T03:58:01;18.63;;;9.73;;
40046;SDS011;31510;48.122;11.576;2022-12-08T04:00:26;17.45;;;9.30;;
40046;SDS011;31510;48.122;11.576;2022-12-08T04:02:52;17.75;;;9.00;;
40046;SDS011;31510;48.122;11.576;2022-12-08T04:05:17;19.15;;;9.07;;
40046;SDS011;31510;48.122;11.576;2022-12-08T04:07:42;18.73;;;8.93;;
40046;SDS011;31510;48.122;11.576;2022-12-08T04:10:07;16.52;;;8.55;;
40046;SDS011;31510;48.122;11.576;2022-12-08T04:12:33;18.58;;;9.18;;
40046;SDS011;31510;48.122;11.576;2022-12-08T04:14:58;18.00;;;8.55;;
40046;SDS011;31510;48.122;11.576;2022-12-08T04:17:24;20.30;;;9.35;;
40046;SDS011;31510;48.122;11.576;2022-12-08T04:19:49;20.27;;;10.00;;
40046;SDS011;31510;48.122;11.576;2022-12-08T04:22:14;18.92;;;9.50;;
40046;SDS011;31510;48.122;11.576;2022-12-08T04:24:40;16.42;;;8.48;;
40046;SDS011;31510;48.122;11.576;2022-12-08T04:27:05;16.13;;;8.35;;
40046;SDS011;31510;48.122;11.576;2022-12-08T04:29:30;16.15;;;8.80;;
40046;SDS011;31510;48.122;11.576;2022-12-08T04:31:55;14.20;;;8.57;;
40046;SDS011;31510;48.122;11.576;2022-12-08T04:34:21;17.55;;;9.18;;
40046;SDS011;31510;48.122;11.576;2022-12-08T04:36:46;15.88;;;8.63;;
40046;SDS011;31510;48.122;11.576;2022-12-08T04:39:11;17.23;;;9.00;;
40046;SDS011;31510;48.122;11.576;2022-12-08T04:41:36;16.40;;;8.60;;
40046;SDS011;31510;48.122;11.576;2022-12-08T04:44:02;16.98;;;8.52;;
40046;SDS011;31510;48.122;11.576;2022-12-08T04:46:27;19.02;;;8.80;;
40046;SDS011;31510;48.122;11.576;2022-12-08T04:48:52;19.92;;;8.82;;
40046;SDS011;31510;48.122;11.576;2022-12-08T04:51:18;15.45;;;8.55;;
40046;SDS011;31510;48.122;11.576;2022-12-08T04:53:44;14.85;;;9.25;;
40046;SDS011;31510;48.122;11.576;2022-12-08T04:56:16;17.08;;;9.63;;
40046;SDS011;31510;48.122;11.576;2022-12-08T04:58:43;15.98;;;8.73;;
40046;SDS011;31510;48.122;11.576;2022-12-08T05:01:08;15.82;;;8.13;;
40046;SDS011;31510;48.122;11.576;2022-12-08T05:03:34;14.48;;;7.95;;
40046;SDS011;31510;48.122;11.576;2022-12-08T05:06:00;14.63;;;8.90;;
40046;SDS011;31510;48.122;11.576;2022-12-08T05:08:26;16.50;;;9.13;;
40046;SDS011;31510;48.122;11.576;2022-12-08T05:10:52;17.48;;;8.70;;
40046;SDS011;31510;48.122;11.576;2022-12-08T05:13:17;18.13;;;8.85;;
40046;SDS011;31510;48.122;11.576;2022-12-08T05:15:43;17.60;;;9.13;;
40046;SDS011;31510;48.122;11.576;2022-12-08T05:18:08;16.40;;;9.25;;
40046;SDS011;31510;48.122;11.576;2022-12-08T05:20:33;16.88;;;8.77;;
40046;SDS011;31510;48.122;11.576;2022-12-08T05:22:59;15.63;;;7.97;;
40046;SDS011;31510;48.122;11.576;2022-12-08T05:25:24;16.67;;;8.55;;
40046;SDS011;31510;48.122;11.576;2022-12-08T05:27:49;16.45;;;8.80;;
40046;SDS011;31510;48.122;11.576;2022-12-08T05:30:15;17.45;;;8.82;;
40046;SDS011;31510;48.122;11.576;2022-12-08T05:32:40;18.40;;;8.98;;
40046;SDS011;31510;48.122;11.576;2022-12-08T05:35:07;14.48;;;8.05;;
40046;SDS011;31510;48.122;11.576;2022-12-08T05:37:32;17.92;;;8.02;;
40046;SDS011;31510;48.122;11.576;2022-12-08T05:39:57;15.90;;;8.02;;
40046;SDS011;31510;48.122;11.576;2022-12-08T05:42:23;16.08;;;8.93;;
40046;SDS011;31510;48.122;11.576;2022-12-08T05:44:48;17.27;;;8.68;;
40046;SDS011;31510;48.122;11.576;2022-12-08T05:47:13;17.15;;;8.57;;
40046;SDS011;31510;48.122;11.576;2022-12-08T05:49:39;15.43;;;7.68;;
40046;SDS011;31510;48.122;11.576;2022-12-08T05:52:04;14.43;;;8.18;;
40046;SDS011;31510;48.122;11.576;2022-12-08T05:54:30;16.77;;;8.30;;
40046;SDS011;31510;48.122;11.576;2022-12-08T05:56:55;16.58;;;8.07;;
40046;SDS011;31510;48.122;11.576;2022-12-08T05:59:20;16.42;;;7.90;;
40046;SDS011;31510;48.122;11.576;2022-12-08T06:01:45;15.75;;;8.35;;
40046;SDS011;31510;48.122;11.576;2022-12-08T06:04:11;14.80;;;8.43;;
40046;SDS011;31510;48.122;11.576;2022-12-08T06:06:36;18.73;;;9.15;;
40046;SDS011;31510;48.122;11.576;2022-12-08T06:09:03;15.82;;;9.15;;
40046;SDS011;31510;48.122;11.576;2022-12-08T06:11:29;15.60;;;8.13;;
40046;SDS011;31510;48.122;11.576;2022-12-08T06:13:56;14.32;;;8.38;;
40046;SDS011;31510;48.122;11.576;2022-12-08T06:16:23;15.52;;;9.23;;
40046;SDS011;31510;48.122;11.576;2022-12-08T06:18:49;14.32;;;8.68;;
40046;SDS011;31510;48.122;11.576;2022-12-08T06:21:15;16.83;;;8.50;;
40046;SDS011;31510;48.122;11.576;2022-12-08T06:23:41;14.73;;;8.32;;
40046;SDS011;31510;48.122;11.576;2022-12-08T06:26:11;14.02;;;8.18;;
40046;SDS011;31510;48.122;11.576;2022-12-08T06:28:38;16.30;;;8.85;;
40046;SDS011;31510;48.122;11.576;2022-12-08T06:31:08;15.07;;;8.35;;
40046;SDS011;31510;48.122;11.576;2022-12-08T06:33:35;15.23;;;8.55;;
40046;SDS011;31510;48.122;11.576;2022-12-08T06:36:02;16.33;;;8.95;;
40046;SDS011;31510;48.122;11.576;2022-12-08T06:38:28;15.68;;;9.13;;
40046;SDS011;31510;48.122;11.576;2022-12-08T06:40:54;14.77;;;8.00;;
40046;SDS011;31510;48.122;11.576;2022-12-08T06:43:19;17.92;;;9.13;;
40046;SDS011;31510;48.122;11.576;2022-12-08T06:45:45;17.35;;;8.85;;
40046;SDS011;31510;48.122;11.576;2022-12-08T06:48:10;13.48;;;8.10;;
40046;SDS011;31510;48.122;11.576;2022-12-08T06:50:36;15.70;;;8.85;;
40046;SDS011;31510;48.122;11.576;2022-12-08T06:53:01;16.98;;;8.63;;
40046;SDS011;31510;48.122;11.576;2022-12-08T06:55:26;14.15;;;8.48;;
40046;SDS011;31510;48.122;11.576;2022-12-08T06:57:52;14.73;;;9.15;;
40046;SDS011;31510;48.122;11.576;2022-12-08T07:00:18;15.73;;;8.73;;
40046;SDS011;31510;48.122;11.576;2022-12-08T07:02:43;14.82;;;8.23;;
40046;SDS011;31510;48.122;11.576;2022-12-08T07:05:08;17.75;;;8.82;;
40046;SDS011;31510;48.122;11.576;2022-12-08T07:07:34;12.20;;;6.93;;
40046;SDS011;31510;48.122;11.576;2022-12-08T07:09:59;14.10;;;8.15;;
40046;SDS011;31510;48.122;11.576;2022-12-08T07:12:24;14.20;;;7.60;;
40046;SDS011;31510;48.122;11.576;2022-12-08T07:14:49;16.20;;;8.27;;
40046;SDS011;31510;48.122;11.576;2022-12-08T07:17:15;14.20;;;7.45;;
40046;SDS011;31510;48.122;11.576;2022-12-08T07:19:40;14.77;;;8.48;;
40046;SDS011;31510;48.122;11.576;2022-12-08T07:22:05;15.57;;;7.78;;
40046;SDS011;31510;48.122;11.576;2022-12-08T07:24:31;14.32;;;7.93;;
40046;SDS011;31510;48.122;11.576;2022-12-08T07:26:56;13.68;;;7.13;;
40046;SDS011;31510;48.122;11.576;2022-12-08T07:29:21;15.23;;;7.88;;
40046;SDS011;31510;48.122;11.576;2022-12-08T07:31:46;16.83;;;8.50;;
40046;SDS011;31510;48.122;11.576;2022-12-08T07:34:12;13.93;;;8.10;;
40046;SDS011;31510;48.122;11.576;2022-12-08T07:36:38;15.70;;;9.00;;
40046;SDS011;31510;48.122;11.576;2022-12-08T07:39:03;16.95;;;9.32;;
40046;SDS011;31510;48.122;11.576;2022-12-08T07:41:29;18.05;;;9.65;;
40046;SDS011;31510;48.122;11.576;2022-12-08T07:43:54;15.90;;;7.85;;
40046;SDS011;31510;48.122;11.576;2022-12-08T07:46:20;16.83;;;8.60;;
40046;SDS011;31510;48.122;11.576;2022-12-08T07:48:47;17.58;;;8.35;;
40046;SDS011;31510;48.122;11.576;2022-12-08T07:51:13;13.98;;;7.43;;
40046;SDS011;31510;48.122;11.576;2022-12-08T07:53:40;15.20;;;8.60;;
40046;SDS011;31510;48.122;11.576;2022-12-08T07:56:07;14.48;;;8.40;;
40046;SDS011;31510;48.122;11.576;2022-12-08T07:58:33;14.90;;;8.35;;
40046;SDS011;31510;48.122;11.576;2022-12-08T08:00:58;14.23;;;7.25;;
40046;SDS011;31510;48.122;11.576;2022-12-08T08:03:23;14.00;;;7.25;;
40046;SDS011;31510;48.122;11.576;2022-12-08T08:05:49;14.15;;;7.57;;
40046;SDS011;31510;48.122;11.576;2022-12-08T08:08:14;14.80;;;7.45;;
40046;SDS011;31510;48.122;11.576;2022-12-08T08:10:40;14.80;;;7.70;;
40046;SDS011;31510;48.122;11.576;2022-12-08T08:13:06;13.38;;;7.40;;
40046;SDS011;31510;48.122;11.576;2022-12-08T08:15:32;14.02;;;7.93;;
40046;SDS011;31510;48.122;11.576;2022-12-08T08:17:57;13.23;;;7.35;;
40046;SDS011;31510;48.122;11.576;2022-12-08T08:20:22;15.80;;;7.05;;
40046;SDS011;31510;48.122;11.576;2022-12-08T08:22:48;11.60;;;6.25;;
40046;SDS011;31510;48.122;11.576;2022-12-08T08:25:15;11.07;;;6.57;;
40046;SDS011;31510;48.122;11.576;2022-12-08T08:27:41;12.93;;;6.20;;
40046;SDS011;31510;48.122;11.576;2022-12-08T08:30:08;13.45;;;6.38;;
40046;SDS011;31510;48.122;11.576;2022-12-08T08:32:34;14.50;;;7.97;;
40046;SDS011;31510;48.122;11.576;2022-12-08T08:35:00;11.60;;;5.85;;
40046;SDS011;31510;48.122;11.576;2022-12-08T08:37:26;9.25;;;5.10;;
40046;SDS011;31510;48.122;11.576;2022-12-08T08:39:51;12.43;;;6.60;;
40046;SDS011;31510;48.122;11.576;2022-12-08T08:42:17;10.30;;;5.82;;
40046;SDS011;31510;48.122;11.576;2022-12-08T08:44:42;9.63;;;6.15;;
40046;SDS011;31510;48.122;11.576;2022-12-08T08:47:07;9.23;;;5.68;;
40046;SDS011;31510;48.122;11.576;2022-12-08T08:49:33;12.65;;;6.65;;
40046;SDS011;31510;48.122;11.576;2022-12-08T08:51:58;9.95;;;6.15;;
40046;SDS011;31510;48.122;11.576;2022-12-08T08:54:24;11.27;;;5.53;;
40046;SDS011;31510;48.122;11.576;2022-12-08T08:56:49;15.50;;;6.75;;
40046;SDS011;31510;48.122;11.576;2022-12-08T08:59:14;11.15;;;6.65;;
40046;SDS011;31510;48.122;11.576;2022-12-08T09:01:39;12.52;;;5.95;;
40046;SDS011;31510;48.122;11.576;2022-12-08T09:04:05;12.32;;;5.80;;
40046;SDS011;31510;48.122;11.576;2022-12-08T09:06:30;15.05;;;6.35;;
40046;SDS011;31510;48.122;11.576;2022-12-08T09:08:55;11.50;;;6.35;;
40046;SDS011;31510;48.122;11.576;2022-12-08T09:11:21;14.50;;;6.97;;
40046;SDS011;31510;48.122;11.576;2022-12-08T09:13:47;13.65;;;7.68;;
40046;SDS011;31510;48.122;11.576;2022-12-08T09:16:14;15.50;;;7.25;;
40046;SDS011;31510;48.122;11.576;2022-12-08T09:18:39;12.48;;;6.95;;
40046;SDS011;31510;48.122;11.576;2022-12-08T09:21:05;15.32;;;7.07;;
40046;SDS011;31510;48.122;11.576;2022-12-08T09:23:32;13.50;;;7.15;;
40046;SDS011;31510;48.122;11.576;2022-12-08T09:25:58;18.63;;;7.25;;
40046;SDS011;31510;48.122;11.576;2022-12-08T09:28:23;13.85;;;7.40;;
40046;SDS011;31510;48.122;11.576;2022-12-08T09:30:49;13.88;;;6.80;;
40046;SDS011;31510;48.122;11.576;2022-12-08T09:33:15;11.80;;;7.18;;
40046;SDS011;31510;48.122;11.576;2022-12-08T09:35:40;14.50;;;8.10;;
40046;SDS011;31510;48.122;11.576;2022-12-08T09:38:06;13.63;;;7.90;;
40046;SDS011;31510;48.122;11.576;2022-12-08T09:40:31;17.33;;;8.32;;
40046;SDS011;31510;48.122;11.576;2022-12-08T09:46:03;17.10;;;8.20;;
40046;SDS011;31510;48.122;11.576;2022-12-08T09:48:40;13.85;;;7.65;;
40046;SDS011;31510;48.122;11.576;2022-12-08T09:51:12;13.27;;;8.18;;
40046;SDS011;31510;48.122;11.576;2022-12-08T09:53:47;13.27;;;7.80;;
40046;SDS011;31510;48.122;11.576;2022-12-08T09:56:32;16.48;;;9.75;;
40046;SDS011;31510;48.122;11.576;2022-12-08T10:01:50;15.73;;;8.85;;
40046;SDS011;31510;48.122;11.576;2022-12-08T10:04:25;14.82;;;7.35;;
40046;SDS011;31510;48.122;11.576;2022-12-08T10:07:16;16.58;;;9.20;;
40046;SDS011;31510;48.122;11.576;2022-12-08T10:10:24;12.23;;;7.63;;
40046;SDS011;31510;48.122;11.576;2022-12-08T10:18:34;13.88;;;8.02;;
40046;SDS011;31510;48.122;11.576;2022-12-08T10:21:20;17.98;;;8.05;;
40046;SDS011;31510;48.122;11.576;2022-12-08T10:23:51;14.02;;;8.00;;
40046;SDS011;31510;48.122;11.576;2022-12-08T10:26:22;15.60;;;9.00;;
40046;SDS011;31510;48.122;11.576;2022-12-08T10:28:48;14.40;;;7.35;;
40046;SDS011;31510;48.122;11.576;2022-12-08T10:31:21;13.57;;;7.30;;
40046;SDS011;31510;48.122;11.576;2022-12-08T10:33:51;16.40;;;9.13;;
40046;SDS011;31510;48.122;11.576;2022-12-08T10:36:24;17.88;;;9.75;;
40046;SDS011;31510;48.122;11.576;2022-12-08T10:39:55;20.60;;;10.27;;
40046;SDS011;31510;48.122;11.576;2022-12-08T10:42:08;22.27;;;10.25;;
40046;SDS011;31510;48.122;11.576;2022-12-08T10:44:48;17.75;;;9.50;;
40046;SDS011;31510;48.122;11.576;2022-12-08T10:47:24;19.65;;;9.68;;
40046;SDS011;31510;48.122;11.576;2022-12-08T10:52:44;21.33;;;11.48;;
40046;SDS011;31510;48.122;11.576;2022-12-08T10:55:16;19.42;;;10.68;;
40046;SDS011;31510;48.122;11.576;2022-12-08T10:57:43;22.92;;;12.02;;
40046;SDS011;31510;48.122;11.576;2022-12-08T11:00:12;21.35;;;11.98;;
40046;SDS011;31510;48.122;11.576;2022-12-08T11:03:02;17.30;;;9.77;;
40046;SDS011;31510;48.122;11.576;2022-12-08T11:05:32;25.48;;;11.13;;
40046;SDS011;31510;48.122;11.576;2022-12-08T11:07:59;17.45;;;10.50;;
40046;SDS011;31510;48.122;11.576;2022-12-08T11:10:36;20.35;;;10.32;;
40046;SDS011;31510;48.122;11.576;2022-12-08T11:13:11;20.42;;;10.80;;
40046;SDS011;31510;48.122;11.576;2022-12-08T11:15:43;19.27;;;10.50;;
40046;SDS011;31510;48.122;11.576;2022-12-08T11:18:23;19.02;;;11.48;;
40046;SDS011;31510;48.122;11.576;2022-12-08T11:20:59;21.63;;;11.55;;
40046;SDS011;31510;48.122;11.576;2022-12-08T11:23:35;21.50;;;11.77;;
40046;SDS011;31510;48.122;11.576;2022-12-08T11:26:13;23.00;;;11.43;;
40046;SDS011;31510;48.122;11.576;2022-12-08T11:28:44;19.02;;;11.73;;
40046;SDS011;31510;48.122;11.576;2022-12-08T11:31:16;19.75;;;11.75;;
40046;SDS011;31510;48.122;11.576;2022-12-08T11:33:45;18.33;;;10.63;;
40046;SDS011;31510;48.122;11.576;2022-12-08T11:36:11;21.45;;;11.27;;
40046;SDS011;31510;48.122;11.576;2022-12-08T11:38:40;24.23;;;12.00;;
40046;SDS011;31510;48.122;11.576;2022-12-08T11:41:09;22.50;;;10.82;;
40046;SDS011;31510;48.122;11.576;2022-12-08T11:43:52;22.55;;;10.45;;
40046;SDS011;31510;48.122;11.576;2022-12-08T11:46:23;21.50;;;11.05;;
40046;SDS011;31510;48.122;11.576;2022-12-08T11:48:55;21.58;;;11.40;;
40046;SDS011;31510;48.122;11.576;2022-12-08T11:51:33;20.30;;;10.63;;
40046;SDS011;31510;48.122;11.576;2022-12-08T11:56:33;19.83;;;10.88;;
40046;SDS011;31510;48.122;11.576;2022-12-08T11:59:07;20.40;;;10.05;;
40046;SDS011;31510;48.122;11.576;2022-12-08T12:01:40;17.95;;;10.65;;
40046;SDS011;31510;48.122;11.576;2022-12-08T12:04:11;18.42;;;10.70;;
40046;SDS011;31510;48.122;11.576;2022-12-08T12:07:04;19.95;;;10.45;;
40046;SDS011;31510;48.122;11.576;2022-12-08T12:16:05;17.17;;;9.82;;
40046;SDS011;31510;48.122;11.576;2022-12-08T12:18:51;22.55;;;10.73;;
40046;SDS011;31510;48.122;11.576;2022-12-08T12:24:04;19.10;;;10.35;;
40046;SDS011;31510;48.122;11.576;2022-12-08T12:26:34;23.00;;;10.50;;
40046;SDS011;31510;48.122;11.576;2022-12-08T12:29:13;19.23;;;9.93;;
40046;SDS011;31510;48.122;11.576;2022-12-08T12:34:16;18.95;;;9.65;;
40046;SDS011;31510;48.122;11.576;2022-12-08T12:36:46;18.00;;;9.43;;
40046;SDS011;31510;48.122;11.576;2022-12-08T12:39:14;17.15;;;8.90;;
40046;SDS011;31510;48.122;11.576;2022-12-08T12:54:42;17.17;;;9.55;;
40046;SDS011;31510;48.122;11.576;2022-12-08T13:02:19;22.85;;;10.23;;
40046;SDS011;31510;48.122;11.576;2022-12-08T13:05:01;23.10;;;11.20;;
40046;SDS011;31510;48.122;11.576;2022-12-08T13:07:33;18.20;;;9.98;;
40046;SDS011;31510;48.122;11.576;2022-12-08T13:12:40;21.42;;;9.48;;
40046;SDS011;31510;48.122;11.576;2022-12-08T13:15:13;18.38;;;10.07;;
40046;SDS011;31510;48.122;11.576;2022-12-08T13:17:43;18.38;;;9.75;;
40046;SDS011;31510;48.122;11.576;2022-12-08T13:20:20;17.75;;;9.98;;
40046;SDS011;31510;48.122;11.576;2022-12-08T13:30:48;16.95;;;9.43;;
40046;SDS011;31510;48.122;11.576;2022-12-08T13:33:26;19.13;;;9.43;;
40046;SDS011;31510;48.122;11.576;2022-12-08T13:38:55;16.45;;;8.65;;
40046;SDS011;31510;48.122;11.576;2022-12-08T13:41:24;18.33;;;10.07;;
40046;SDS011;31510;48.122;11.576;2022-12-08T13:44:04;18.02;;;9.88;;
40046;SDS011;31510;48.122;11.576;2022-12-08T13:46:34;18.85;;;10.27;;
40046;SDS011;31510;48.122;11.576;2022-12-08T13:49:03;17.92;;;10.48;;
40046;SDS011;31510;48.122;11.576;2022-12-08T13:51:38;18.50;;;8.70;;
40046;SDS011;31510;48.122;11.576;2022-12-08T13:54:08;19.35;;;9.60;;
40046;SDS011;31510;48.122;11.576;2022-12-08T13:56:43;18.00;;;9.90;;
40046;SDS011;31510;48.122;11.576;2022-12-08T13:59:22;18.05;;;9.23;;
40046;SDS011;31510;48.122;11.576;2022-12-08T14:01:52;19.83;;;8.70;;
40046;SDS011;31510;48.122;11.576;2022-12-08T14:04:21;18.83;;;9.38;;
40046;SDS011;31510;48.122;11.576;2022-12-08T14:06:48;19.33;;;9.45;;
40046;SDS011;31510;48.122;11.576;2022-12-08T14:09:16;17.20;;;9.15;;
40046;SDS011;31510;48.122;11.576;2022-12-08T14:11:46;22.90;;;10.38;;
40046;SDS011;31510;48.122;11.576;2022-12-08T14:16:48;19.83;;;9.82;;
40046;SDS011;31510;48.122;11.576;2022-12-08T14:19:17;17.58;;;9.88;;
40046;SDS011;31510;48.122;11.576;2022-12-08T14:22:12;22.80;;;10.15;;
40046;SDS011;31510;48.122;11.576;2022-12-08T14:24:43;19.05;;;10.13;;
40046;SDS011;31510;48.122;11.576;2022-12-08T14:27:23;19.15;;;10.10;;
40046;SDS011;31510;48.122;11.576;2022-12-08T14:29:51;19.88;;;10.05;;
40046;SDS011;31510;48.122;11.576;2022-12-08T14:35:01;21.52;;;10.52;;
40046;SDS011;31510;48.122;11.576;2022-12-08T14:37:54;17.58;;;9.40;;
40046;SDS011;31510;48.122;11.576;2022-12-08T14:45:32;20.35;;;11.15;;
40046;SDS011;31510;48.122;11.576;2022-12-08T14:58:47;29.23;;;12.95;;
40046;SDS011;31510;48.122;11.576;2022-12-08T15:01:16;18.67;;;10.20;;
40046;SDS011;31510;48.122;11.576;2022-12-08T15:03:46;21.52;;;10.60;;
40046;SDS011;31510;48.122;11.576;2022-12-08T15:06:13;20.33;;;10.43;;
40046;SDS011;31510;48.122;11.576;2022-12-08T15:08:51;22.23;;;10.70;;
40046;SDS011;31510;48.122;11.576;2022-12-08T15:13:45;22.88;;;11.00;;
40046;SDS011;31510;48.122;11.576;2022-12-08T15:21:51;20.75;;;10.02;;
40046;SDS011;31510;48.122;11.576;2022-12-08T15:24:17;18.73;;;10.35;;
40046;SDS011;31510;48.122;11.576;2022-12-08T15:26:46;20.75;;;11.57;;
40046;SDS011;31510;48.122;11.576;2022-12-08T15:29:31;16.40;;;9.38;;
40046;SDS011;31510;48.122;11.576;2022-12-08T15:31:58;22.85;;;11.88;;
40046;SDS011;31510;48.122;11.576;2022-12-08T15:34:24;20.02;;;10.75;;
40046;SDS011;31510;48.122;11.576;2022-12-08T15:36:51;21.92;;;11.25;;
40046;SDS011;31510;48.122;11.576;2022-12-08T15:39:29;19.10;;;10.07;;
40046;SDS011;31510;48.122;11.576;2022-12-08T15:41:57;20.23;;;10.63;;
40046;SDS011;31510;48.122;11.576;2022-12-08T15:44:23;25.40;;;11.82;;
40046;SDS011;31510;48.122;11.576;2022-12-08T15:46:48;21.63;;;11.65;;
40046;SDS011;31510;48.122;11.576;2022-12-08T15:49:21;21.15;;;11.00;;
40046;SDS011;31510;48.122;11.576;2022-12-08T15:51:48;20.55;;;11.27;;
40046;SDS011;31510;48.122;11.576;2022-12-08T15:54:14;19.60;;;10.77;;
40046;SDS011;31510;48.122;11.576;2022-12-08T15:56:51;25.75;;;10.00;;
40046;SDS011;31510;48.122;11.576;2022-12-08T15:59:19;21.67;;;10.60;;
40046;SDS011;31510;48.122;11.576;2022-12-08T16:01:46;20.40;;;10.27;;
40046;SDS011;31510;48.122;11.576;2022-12-08T16:04:13;19.70;;;11.50;;
40046;SDS011;31510;48.122;11.576;2022-12-08T16:06:40;20.80;;;11.60;;
40046;SDS011;31510;48.122;11.576;2022-12-08T16:09:18;22.58;;;10.75;;
40046;SDS011;31510;48.122;11.576;2022-12-08T16:11:47;19.20;;;10.27;;
40046;SDS011;31510;48.122;11.576;2022-12-08T16:14:31;22.23;;;11.27;;
40046;SDS011;31510;48.122;11.576;2022-12-08T16:16:56;17.58;;;10.05;;
40046;SDS011;31510;48.122;11.576;2022-12-08T16:19:22;21.13;;;11.68;;
40046;SDS011;31510;48.122;11.576;2022-12-08T16:21:47;20.48;;;10.40;;
40046;SDS011;31510;48.122;11.576;2022-12-08T16:24:13;22.40;;;11.63;;
40046;SDS011;31510;48.122;11.576;2022-12-08T16:26:38;27.48;;;16.20;;
40046;SDS011;31510;48.122;11.576;2022-12-08T16:29:04;42.03;;;26.75;;
40046;SDS011;31510;48.122;11.576;2022-12-08T16:31:30;27.45;;;15.77;;
40046;SDS011;31510;48.122;11.576;2022-12-08T16:33:55;19.63;;;10.75;;